Terminal Aerodrome Forecast
Issued by NWS Shreveport, LA

Home | Current Version | Previous Version | Text Only | Print | Product List | Glossary On
Versions: 1 2 3 4 5 6 7 8 9 10 11 12 13 14 15 16 17 18
000
FTUS44 KSHV 300817 AAA
TAFELD
TAF AMD
KELD 300817Z 3008/3106 19005KT P6SM FEW027
      TEMPO 3009/3013 26007KT 3SM -TSRA BR BKN015CB
     FM301300 27008KT P6SM SCT050 BKN100
     FM310000 28004KT P6SM BKN250=

USA.gov is the U.S. government's official web portal to all federal, state and local government web resources and services.